sensor_id;sensor_type;location;lat;lon;timestamp;temperature;humidity
24162;DHT22;12318;51.262;7.066;2023-04-01T00:02:20;9.50;99.90
24162;DHT22;12318;51.262;7.066;2023-04-01T00:04:46;9.50;99.90
24162;DHT22;12318;51.262;7.066;2023-04-01T00:07:12;9.50;99.90
24162;DHT22;12318;51.262;7.066;2023-04-01T00:09:38;9.50;99.90
24162;DHT22;12318;51.262;7.066;2023-04-01T00:12:04;9.50;99.90
24162;DHT22;12318;51.262;7.066;2023-04-01T00:14:30;9.50;99.90
24162;DHT22;12318;51.262;7.066;2023-04-01T00:16:56;9.60;99.90
24162;DHT22;12318;51.262;7.066;2023-04-01T00:19:22;9.60;99.90
24162;DHT22;12318;51.262;7.066;2023-04-01T00:21:48;9.50;99.90
24162;DHT22;12318;51.262;7.066;2023-04-01T00:24:13;9.60;99.90
24162;DHT22;12318;51.262;7.066;2023-04-01T00:26:39;9.50;99.90
24162;DHT22;12318;51.262;7.066;2023-04-01T00:29:07;9.50;99.90
24162;DHT22;12318;51.262;7.066;2023-04-01T00:31:35;9.50;99.90
24162;DHT22;12318;51.262;7.066;2023-04-01T00:34:01;9.50;99.90
24162;DHT22;12318;51.262;7.066;2023-04-01T00:36:27;9.40;99.90
24162;DHT22;12318;51.262;7.066;2023-04-01T00:38:53;9.40;99.90
24162;DHT22;12318;51.262;7.066;2023-04-01T00:41:19;9.50;99.90
24162;DHT22;12318;51.262;7.066;2023-04-01T00:43:49;9.50;99.90
24162;DHT22;12318;51.262;7.066;2023-04-01T00:46:15;9.50;99.90
24162;DHT22;12318;51.262;7.066;2023-04-01T00:48:48;9.40;99.90
24162;DHT22;12318;51.262;7.066;2023-04-01T00:51:20;9.50;99.90
24162;DHT22;12318;51.262;7.066;2023-04-01T00:53:50;9.50;99.90
24162;DHT22;12318;51.262;7.066;2023-04-01T00:56:22;9.50;99.90
24162;DHT22;12318;51.262;7.066;2023-04-01T00:58:56;9.50;99.90
24162;DHT22;12318;51.262;7.066;2023-04-01T01:01:24;9.50;99.90
24162;DHT22;12318;51.262;7.066;2023-04-01T01:03:50;9.40;99.90
24162;DHT22;12318;51.262;7.066;2023-04-01T01:06:24;9.40;99.90
24162;DHT22;12318;51.262;7.066;2023-04-01T01:09:14;9.50;99.90
24162;DHT22;12318;51.262;7.066;2023-04-01T01:11:54;9.50;99.90
24162;DHT22;12318;51.262;7.066;2023-04-01T01:32:08;9.40;99.90
24162;DHT22;12318;51.262;7.066;2023-04-01T01:34:46;9.40;99.90
24162;DHT22;12318;51.262;7.066;2023-04-01T01:37:16;9.40;99.90
24162;DHT22;12318;51.262;7.066;2023-04-01T01:39:45;9.40;99.90
24162;DHT22;12318;51.262;7.066;2023-04-01T01:42:15;9.40;99.90
24162;DHT22;12318;51.262;7.066;2023-04-01T01:44:44;9.40;99.90
24162;DHT22;12318;51.262;7.066;2023-04-01T01:47:12;9.40;99.90
24162;DHT22;12318;51.262;7.066;2023-04-01T01:49:39;9.40;99.90
24162;DHT22;12318;51.262;7.066;2023-04-01T01:52:07;9.40;99.90
24162;DHT22;12318;51.262;7.066;2023-04-01T01:54:33;9.50;99.90
24162;DHT22;12318;51.262;7.066;2023-04-01T01:57:09;9.40;99.90
24162;DHT22;12318;51.262;7.066;2023-04-01T01:59:38;9.40;99.90
24162;DHT22;12318;51.262;7.066;2023-04-01T02:02:05;9.50;99.90
24162;DHT22;12318;51.262;7.066;2023-04-01T02:04:39;9.40;99.90
24162;DHT22;12318;51.262;7.066;2023-04-01T02:07:12;9.40;99.90
24162;DHT22;12318;51.262;7.066;2023-04-01T02:09:39;9.40;99.90
24162;DHT22;12318;51.262;7.066;2023-04-01T02:12:11;9.40;99.90
24162;DHT22;12318;51.262;7.066;2023-04-01T02:14:52;9.40;99.90
24162;DHT22;12318;51.262;7.066;2023-04-01T02:17:21;9.40;99.90
24162;DHT22;12318;51.262;7.066;2023-04-01T02:19:57;9.40;99.90
24162;DHT22;12318;51.262;7.066;2023-04-01T02:22:31;9.40;99.90
24162;DHT22;12318;51.262;7.066;2023-04-01T02:25:03;9.40;99.90
24162;DHT22;12318;51.262;7.066;2023-04-01T02:27:30;9.50;99.90
24162;DHT22;12318;51.262;7.066;2023-04-01T02:29:56;9.40;99.90
24162;DHT22;12318;51.262;7.066;2023-04-01T02:32:24;9.40;99.90
24162;DHT22;12318;51.262;7.066;2023-04-01T02:34:51;9.30;99.90
24162;DHT22;12318;51.262;7.066;2023-04-01T02:37:17;9.30;99.90
24162;DHT22;12318;51.262;7.066;2023-04-01T02:39:43;9.30;99.90
24162;DHT22;12318;51.262;7.066;2023-04-01T02:42:10;9.30;99.90
24162;DHT22;12318;51.262;7.066;2023-04-01T02:44:36;9.30;99.90
24162;DHT22;12318;51.262;7.066;2023-04-01T02:47:02;9.30;99.90
24162;DHT22;12318;51.262;7.066;2023-04-01T02:49:28;9.30;99.90
24162;DHT22;12318;51.262;7.066;2023-04-01T02:51:54;9.30;99.90
24162;DHT22;12318;51.262;7.066;2023-04-01T02:54:20;9.30;99.90
24162;DHT22;12318;51.262;7.066;2023-04-01T02:56:45;9.30;99.90
24162;DHT22;12318;51.262;7.066;2023-04-01T02:59:11;9.30;99.90
24162;DHT22;12318;51.262;7.066;2023-04-01T03:01:38;9.30;99.90
24162;DHT22;12318;51.262;7.066;2023-04-01T03:04:04;9.40;99.90
24162;DHT22;12318;51.262;7.066;2023-04-01T03:06:30;9.30;99.90
24162;DHT22;12318;51.262;7.066;2023-04-01T03:08:56;9.30;99.90
24162;DHT22;12318;51.262;7.066;2023-04-01T03:11:22;9.30;99.90
24162;DHT22;12318;51.262;7.066;2023-04-01T03:13:48;9.40;99.90
24162;DHT22;12318;51.262;7.066;2023-04-01T03:16:14;9.40;99.90
24162;DHT22;12318;51.262;7.066;2023-04-01T03:18:40;9.20;99.90
24162;DHT22;12318;51.262;7.066;2023-04-01T03:21:17;9.20;99.90
24162;DHT22;12318;51.262;7.066;2023-04-01T03:23:44;9.20;99.90
24162;DHT22;12318;51.262;7.066;2023-04-01T03:26:10;9.20;99.90
24162;DHT22;12318;51.262;7.066;2023-04-01T03:28:36;9.20;99.90
24162;DHT22;12318;51.262;7.066;2023-04-01T03:31:02;9.20;99.90
24162;DHT22;12318;51.262;7.066;2023-04-01T03:33:28;9.30;99.90
24162;DHT22;12318;51.262;7.066;2023-04-01T03:35:54;9.20;99.90
24162;DHT22;12318;51.262;7.066;2023-04-01T03:38:20;9.20;99.90
24162;DHT22;12318;51.262;7.066;2023-04-01T03:40:45;9.20;99.90
24162;DHT22;12318;51.262;7.066;2023-04-01T03:43:11;9.20;99.90
24162;DHT22;12318;51.262;7.066;2023-04-01T03:45:45;9.30;99.90
24162;DHT22;12318;51.262;7.066;2023-04-01T03:48:11;9.20;99.90
24162;DHT22;12318;51.262;7.066;2023-04-01T03:50:36;9.20;99.90
24162;DHT22;12318;51.262;7.066;2023-04-01T03:53:02;9.20;99.90
24162;DHT22;12318;51.262;7.066;2023-04-01T03:55:28;9.30;99.90
24162;DHT22;12318;51.262;7.066;2023-04-01T03:57:53;9.30;99.90
24162;DHT22;12318;51.262;7.066;2023-04-01T04:00:19;9.30;99.90
24162;DHT22;12318;51.262;7.066;2023-04-01T04:02:45;9.30;99.90
24162;DHT22;12318;51.262;7.066;2023-04-01T04:05:11;9.40;99.90
24162;DHT22;12318;51.262;7.066;2023-04-01T04:07:38;9.40;99.90
24162;DHT22;12318;51.262;7.066;2023-04-01T04:10:05;9.40;99.90
24162;DHT22;12318;51.262;7.066;2023-04-01T04:12:32;9.40;99.90
24162;DHT22;12318;51.262;7.066;2023-04-01T04:14:58;9.40;99.90
24162;DHT22;12318;51.262;7.066;2023-04-01T04:17:23;9.40;99.90
24162;DHT22;12318;51.262;7.066;2023-04-01T04:19:49;9.40;99.90
24162;DHT22;12318;51.262;7.066;2023-04-01T04:22:15;9.40;99.90
24162;DHT22;12318;51.262;7.066;2023-04-01T04:24:41;9.40;99.90
24162;DHT22;12318;51.262;7.066;2023-04-01T04:27:06;9.50;99.90
24162;DHT22;12318;51.262;7.066;2023-04-01T04:29:32;9.50;99.90
24162;DHT22;12318;51.262;7.066;2023-04-01T04:31:58;9.50;99.90
24162;DHT22;12318;51.262;7.066;2023-04-01T04:34:24;9.50;99.90
24162;DHT22;12318;51.262;7.066;2023-04-01T04:36:49;9.50;99.90
24162;DHT22;12318;51.262;7.066;2023-04-01T04:39:15;9.50;99.90
24162;DHT22;12318;51.262;7.066;2023-04-01T04:41:41;9.50;99.90
24162;DHT22;12318;51.262;7.066;2023-04-01T04:44:07;9.50;99.90
24162;DHT22;12318;51.262;7.066;2023-04-01T04:46:33;9.50;99.90
24162;DHT22;12318;51.262;7.066;2023-04-01T04:48:59;9.50;99.90
24162;DHT22;12318;51.262;7.066;2023-04-01T04:51:25;9.40;99.90
24162;DHT22;12318;51.262;7.066;2023-04-01T04:53:51;9.50;99.90
24162;DHT22;12318;51.262;7.066;2023-04-01T04:56:18;9.50;99.90
24162;DHT22;12318;51.262;7.066;2023-04-01T04:58:45;9.50;99.90
24162;DHT22;12318;51.262;7.066;2023-04-01T05:01:13;9.50;99.90
24162;DHT22;12318;51.262;7.066;2023-04-01T05:03:40;9.50;99.90
24162;DHT22;12318;51.262;7.066;2023-04-01T05:06:08;9.50;99.90
24162;DHT22;12318;51.262;7.066;2023-04-01T05:08:35;9.50;99.90
24162;DHT22;12318;51.262;7.066;2023-04-01T05:11:02;9.60;99.90
24162;DHT22;12318;51.262;7.066;2023-04-01T05:13:28;9.60;99.90
24162;DHT22;12318;51.262;7.066;2023-04-01T05:15:54;9.60;99.90
24162;DHT22;12318;51.262;7.066;2023-04-01T05:18:20;9.60;99.90
24162;DHT22;12318;51.262;7.066;2023-04-01T05:20:51;9.60;99.90
24162;DHT22;12318;51.262;7.066;2023-04-01T05:23:18;9.60;99.90
24162;DHT22;12318;51.262;7.066;2023-04-01T05:25:49;9.70;99.90
24162;DHT22;12318;51.262;7.066;2023-04-01T05:28:16;9.60;99.90
24162;DHT22;12318;51.262;7.066;2023-04-01T05:30:42;9.60;99.90
24162;DHT22;12318;51.262;7.066;2023-04-01T05:33:10;9.70;99.90
24162;DHT22;12318;51.262;7.066;2023-04-01T05:35:37;9.70;99.90
24162;DHT22;12318;51.262;7.066;2023-04-01T05:38:03;9.70;99.90
24162;DHT22;12318;51.262;7.066;2023-04-01T05:40:29;9.70;99.90
24162;DHT22;12318;51.262;7.066;2023-04-01T05:42:56;9.70;99.90
24162;DHT22;12318;51.262;7.066;2023-04-01T05:45:22;9.70;99.90
24162;DHT22;12318;51.262;7.066;2023-04-01T05:47:47;9.70;99.90
24162;DHT22;12318;51.262;7.066;2023-04-01T05:50:13;9.70;99.90
24162;DHT22;12318;51.262;7.066;2023-04-01T05:52:39;9.60;99.90
24162;DHT22;12318;51.262;7.066;2023-04-01T05:55:05;9.60;99.90
24162;DHT22;12318;51.262;7.066;2023-04-01T05:57:31;9.70;99.90
24162;DHT22;12318;51.262;7.066;2023-04-01T05:59:57;9.70;99.90
24162;DHT22;12318;51.262;7.066;2023-04-01T06:02:23;9.80;99.90
24162;DHT22;12318;51.262;7.066;2023-04-01T06:04:49;9.70;99.90
24162;DHT22;12318;51.262;7.066;2023-04-01T06:07:20;9.70;99.90
24162;DHT22;12318;51.262;7.066;2023-04-01T06:09:45;9.70;99.90
24162;DHT22;12318;51.262;7.066;2023-04-01T06:14:50;9.70;99.90
24162;DHT22;12318;51.262;7.066;2023-04-01T06:17:52;9.80;99.90
24162;DHT22;12318;51.262;7.066;2023-04-01T06:20:48;10.00;99.90
24162;DHT22;12318;51.262;7.066;2023-04-01T06:46:07;9.80;99.90
24162;DHT22;12318;51.262;7.066;2023-04-01T06:48:38;9.80;99.90
24162;DHT22;12318;51.262;7.066;2023-04-01T06:51:36;9.80;99.90
24162;DHT22;12318;51.262;7.066;2023-04-01T06:54:11;9.80;99.90
24162;DHT22;12318;51.262;7.066;2023-04-01T06:56:42;9.80;99.90
24162;DHT22;12318;51.262;7.066;2023-04-01T06:59:20;9.80;99.90
24162;DHT22;12318;51.262;7.066;2023-04-01T07:01:52;9.80;99.90
24162;DHT22;12318;51.262;7.066;2023-04-01T07:04:20;10.00;99.90
24162;DHT22;12318;51.262;7.066;2023-04-01T07:06:52;9.90;99.90
24162;DHT22;12318;51.262;7.066;2023-04-01T07:09:28;9.90;99.90
24162;DHT22;12318;51.262;7.066;2023-04-01T07:12:01;9.80;99.90
24162;DHT22;12318;51.262;7.066;2023-04-01T07:20:05;9.80;99.90
24162;DHT22;12318;51.262;7.066;2023-04-01T07:22:39;9.80;99.90
24162;DHT22;12318;51.262;7.066;2023-04-01T07:25:16;9.80;99.90
24162;DHT22;12318;51.262;7.066;2023-04-01T07:27:43;9.80;99.90
24162;DHT22;12318;51.262;7.066;2023-04-01T07:30:21;9.80;99.90
24162;DHT22;12318;51.262;7.066;2023-04-01T07:33:02;10.00;99.90
24162;DHT22;12318;51.262;7.066;2023-04-01T07:35:37;9.90;99.90
24162;DHT22;12318;51.262;7.066;2023-04-01T07:43:45;9.90;99.90
24162;DHT22;12318;51.262;7.066;2023-04-01T07:46:19;9.90;99.90
24162;DHT22;12318;51.262;7.066;2023-04-01T07:49:18;10.00;99.90
24162;DHT22;12318;51.262;7.066;2023-04-01T07:54:43;10.10;99.90
24162;DHT22;12318;51.262;7.066;2023-04-01T07:57:36;10.00;99.90
24162;DHT22;12318;51.262;7.066;2023-04-01T08:00:22;10.00;99.90
24162;DHT22;12318;51.262;7.066;2023-04-01T08:03:04;10.00;99.90
24162;DHT22;12318;51.262;7.066;2023-04-01T08:21:45;10.10;99.90
24162;DHT22;12318;51.262;7.066;2023-04-01T08:24:39;10.00;99.90
24162;DHT22;12318;51.262;7.066;2023-04-01T08:27:13;10.10;99.90
24162;DHT22;12318;51.262;7.066;2023-04-01T08:30:21;10.00;99.90
24162;DHT22;12318;51.262;7.066;2023-04-01T08:33:05;10.10;99.90
24162;DHT22;12318;51.262;7.066;2023-04-01T08:35:53;10.10;99.90
24162;DHT22;12318;51.262;7.066;2023-04-01T08:38:38;10.20;99.90
24162;DHT22;12318;51.262;7.066;2023-04-01T08:41:28;10.20;99.90
24162;DHT22;12318;51.262;7.066;2023-04-01T08:49:13;10.20;99.90
24162;DHT22;12318;51.262;7.066;2023-04-01T08:57:45;10.40;99.90
24162;DHT22;12318;51.262;7.066;2023-04-01T09:00:33;10.20;99.90
24162;DHT22;12318;51.262;7.066;2023-04-01T09:09:26;10.20;99.90
24162;DHT22;12318;51.262;7.066;2023-04-01T09:21:37;10.30;99.90
24162;DHT22;12318;51.262;7.066;2023-04-01T09:27:43;10.40;99.90
24162;DHT22;12318;51.262;7.066;2023-04-01T09:43:27;10.30;99.90
24162;DHT22;12318;51.262;7.066;2023-04-01T09:46:10;10.50;99.90
24162;DHT22;12318;51.262;7.066;2023-04-01T10:50:57;10.80;99.90
24162;DHT22;12318;51.262;7.066;2023-04-01T10:56:36;10.70;99.90
24162;DHT22;12318;51.262;7.066;2023-04-01T11:10:24;10.70;99.90
24162;DHT22;12318;51.262;7.066;2023-04-01T11:13:20;10.70;99.90
24162;DHT22;12318;51.262;7.066;2023-04-01T11:35:55;10.70;99.90
24162;DHT22;12318;51.262;7.066;2023-04-01T11:44:21;10.90;99.90
24162;DHT22;12318;51.262;7.066;2023-04-01T11:47:03;10.90;99.90
24162;DHT22;12318;51.262;7.066;2023-04-01T11:49:46;10.90;99.90
24162;DHT22;12318;51.262;7.066;2023-04-01T12:06:19;11.00;99.90
24162;DHT22;12318;51.262;7.066;2023-04-01T12:16:40;10.70;99.90
24162;DHT22;12318;51.262;7.066;2023-04-01T12:27:06;10.90;99.90
24162;DHT22;12318;51.262;7.066;2023-04-01T12:35:32;10.70;99.90
24162;DHT22;12318;51.262;7.066;2023-04-01T12:41:16;10.70;99.90
24162;DHT22;12318;51.262;7.066;2023-04-01T12:43:55;10.80;99.90
24162;DHT22;12318;51.262;7.066;2023-04-01T12:49:24;10.80;99.90
24162;DHT22;12318;51.262;7.066;2023-04-01T12:52:03;10.80;99.90
24162;DHT22;12318;51.262;7.066;2023-04-01T12:54:48;10.80;99.90
24162;DHT22;12318;51.262;7.066;2023-04-01T13:07:47;10.80;99.90
24162;DHT22;12318;51.262;7.066;2023-04-01T13:13:34;10.90;99.90
24162;DHT22;12318;51.262;7.066;2023-04-01T13:16:19;10.90;99.90
24162;DHT22;12318;51.262;7.066;2023-04-01T13:18:52;10.80;99.90
24162;DHT22;12318;51.262;7.066;2023-04-01T13:24:28;10.90;99.90
24162;DHT22;12318;51.262;7.066;2023-04-01T13:27:14;10.80;99.90
24162;DHT22;12318;51.262;7.066;2023-04-01T13:32:54;10.90;99.90
24162;DHT22;12318;51.262;7.066;2023-04-01T13:38:48;11.00;99.90
24162;DHT22;12318;51.262;7.066;2023-04-01T13:43:48;11.00;99.90
24162;DHT22;12318;51.262;7.066;2023-04-01T13:54:14;11.00;99.90
24162;DHT22;12318;51.262;7.066;2023-04-01T13:57:07;10.90;99.90
24162;DHT22;12318;51.262;7.066;2023-04-01T14:13:41;10.90;99.90
24162;DHT22;12318;51.262;7.066;2023-04-01T14:47:03;11.00;99.90
24162;DHT22;12318;51.262;7.066;2023-04-01T14:49:41;11.00;99.90
24162;DHT22;12318;51.262;7.066;2023-04-01T14:52:33;11.00;99.90
24162;DHT22;12318;51.262;7.066;2023-04-01T14:55:15;10.90;99.90
24162;DHT22;12318;51.262;7.066;2023-04-01T14:57:58;10.90;99.90
24162;DHT22;12318;51.262;7.066;2023-04-01T15:00:25;10.90;99.90
24162;DHT22;12318;51.262;7.066;2023-04-01T15:03:07;10.90;99.90
24162;DHT22;12318;51.262;7.066;2023-04-01T15:09:02;11.00;99.90
24162;DHT22;12318;51.262;7.066;2023-04-01T15:11:33;10.90;99.90
24162;DHT22;12318;51.262;7.066;2023-04-01T15:17:05;11.00;99.90
24162;DHT22;12318;51.262;7.066;2023-04-01T15:25:45;10.80;99.90
24162;DHT22;12318;51.262;7.066;2023-04-01T15:37:22;11.00;99.90
24162;DHT22;12318;51.262;7.066;2023-04-01T15:42:19;11.00;99.90
24162;DHT22;12318;51.262;7.066;2023-04-01T15:51:25;11.00;99.90
24162;DHT22;12318;51.262;7.066;2023-04-01T15:54:19;10.90;99.90
24162;DHT22;12318;51.262;7.066;2023-04-01T15:57:20;10.90;99.90
24162;DHT22;12318;51.262;7.066;2023-04-01T16:08:29;10.80;99.90
24162;DHT22;12318;51.262;7.066;2023-04-01T16:10:59;10.80;99.90
24162;DHT22;12318;51.262;7.066;2023-04-01T16:21:50;10.80;99.90
24162;DHT22;12318;51.262;7.066;2023-04-01T16:24:38;10.70;99.90
24162;DHT22;12318;51.262;7.066;2023-04-01T16:27:40;10.70;99.90
24162;DHT22;12318;51.262;7.066;2023-04-01T16:30:33;10.80;99.90
24162;DHT22;12318;51.262;7.066;2023-04-01T16:36:13;10.80;99.90
24162;DHT22;12318;51.262;7.066;2023-04-01T16:41:41;10.80;99.90
24162;DHT22;12318;51.262;7.066;2023-04-01T16:44:25;10.80;99.90
24162;DHT22;12318;51.262;7.066;2023-04-01T16:46:56;10.80;99.90
24162;DHT22;12318;51.262;7.066;2023-04-01T16:49:50;10.70;99.90
24162;DHT22;12318;51.262;7.066;2023-04-01T16:52:34;10.70;99.90
24162;DHT22;12318;51.262;7.066;2023-04-01T16:55:18;10.80;99.90
24162;DHT22;12318;51.262;7.066;2023-04-01T16:57:50;10.80;99.90
24162;DHT22;12318;51.262;7.066;2023-04-01T17:03:08;10.80;99.90
24162;DHT22;12318;51.262;7.066;2023-04-01T17:06:25;10.70;99.90
24162;DHT22;12318;51.262;7.066;2023-04-01T17:11:34;10.70;99.90
24162;DHT22;12318;51.262;7.066;2023-04-01T17:14:30;10.60;99.90
24162;DHT22;12318;51.262;7.066;2023-04-01T17:17:17;10.60;99.90
24162;DHT22;12318;51.262;7.066;2023-04-01T17:27:52;10.60;99.90
24162;DHT22;12318;51.262;7.066;2023-04-01T17:35:36;10.60;99.90
24162;DHT22;12318;51.262;7.066;2023-04-01T17:41:17;10.60;99.90
24162;DHT22;12318;51.262;7.066;2023-04-01T17:43:58;10.60;99.90
24162;DHT22;12318;51.262;7.066;2023-04-01T17:46:50;10.60;99.90
24162;DHT22;12318;51.262;7.066;2023-04-01T17:55:09;10.60;99.90
24162;DHT22;12318;51.262;7.066;2023-04-01T18:12:01;10.60;99.90
24162;DHT22;12318;51.262;7.066;2023-04-01T18:28:21;10.60;99.90
24162;DHT22;12318;51.262;7.066;2023-04-01T18:31:09;10.70;99.90
24162;DHT22;12318;51.262;7.066;2023-04-01T18:36:45;10.60;99.90
24162;DHT22;12318;51.262;7.066;2023-04-01T18:39:34;10.70;99.90
24162;DHT22;12318;51.262;7.066;2023-04-01T18:42:30;10.60;99.90
24162;DHT22;12318;51.262;7.066;2023-04-01T18:45:20;10.60;99.90
24162;DHT22;12318;51.262;7.066;2023-04-01T18:47:50;10.60;99.90
24162;DHT22;12318;51.262;7.066;2023-04-01T18:50:27;10.60;99.90
24162;DHT22;12318;51.262;7.066;2023-04-01T18:53:26;10.60;99.90
24162;DHT22;12318;51.262;7.066;2023-04-01T18:56:11;10.60;99.90
24162;DHT22;12318;51.262;7.066;2023-04-01T19:04:47;10.50;99.90
24162;DHT22;12318;51.262;7.066;2023-04-01T19:10:36;10.60;99.90
24162;DHT22;12318;51.262;7.066;2023-04-01T19:21:16;10.50;99.90
24162;DHT22;12318;51.262;7.066;2023-04-01T19:24:12;10.50;99.90
24162;DHT22;12318;51.262;7.066;2023-04-01T19:26:58;10.40;99.90
24162;DHT22;12318;51.262;7.066;2023-04-01T19:32:33;10.40;99.90
24162;DHT22;12318;51.262;7.066;2023-04-01T19:35:44;10.40;99.90
24162;DHT22;12318;51.262;7.066;2023-04-01T19:44:26;10.40;99.90
24162;DHT22;12318;51.262;7.066;2023-04-01T19:46:41;10.30;99.90
24162;DHT22;12318;51.262;7.066;2023-04-01T19:52:00;10.40;99.90
24162;DHT22;12318;51.262;7.066;2023-04-01T20:04:41;10.50;99.90
24162;DHT22;12318;51.262;7.066;2023-04-01T20:10:06;10.50;99.90
24162;DHT22;12318;51.262;7.066;2023-04-01T20:12:58;10.50;99.90
24162;DHT22;12318;51.262;7.066;2023-04-01T20:15:42;10.50;99.90
24162;DHT22;12318;51.262;7.066;2023-04-01T20:19:12;10.40;99.90
24162;DHT22;12318;51.262;7.066;2023-04-01T20:23:43;10.50;99.90
24162;DHT22;12318;51.262;7.066;2023-04-01T20:26:12;10.50;99.90
24162;DHT22;12318;51.262;7.066;2023-04-01T20:29:04;10.40;99.90
24162;DHT22;12318;51.262;7.066;2023-04-01T20:31:42;10.50;99.90
24162;DHT22;12318;51.262;7.066;2023-04-01T20:39:40;10.50;99.90
24162;DHT22;12318;51.262;7.066;2023-04-01T20:53:33;10.40;99.90
24162;DHT22;12318;51.262;7.066;2023-04-01T21:27:21;10.30;99.90
24162;DHT22;12318;51.262;7.066;2023-04-01T21:30:01;10.30;99.90
24162;DHT22;12318;51.262;7.066;2023-04-01T21:32:59;10.20;99.90
24162;DHT22;12318;51.262;7.066;2023-04-01T21:35:44;10.10;99.90
24162;DHT22;12318;51.262;7.066;2023-04-01T21:38:37;10.20;99.90
24162;DHT22;12318;51.262;7.066;2023-04-01T21:47:53;10.20;99.90
24162;DHT22;12318;51.262;7.066;2023-04-01T22:12:35;9.70;99.90
24162;DHT22;12318;51.262;7.066;2023-04-01T22:15:16;9.60;99.90
24162;DHT22;12318;51.262;7.066;2023-04-01T22:18:09;9.70;99.90
24162;DHT22;12318;51.262;7.066;2023-04-01T22:23:44;9.60;99.90
24162;DHT22;12318;51.262;7.066;2023-04-01T22:28:58;9.60;99.90
24162;DHT22;12318;51.262;7.066;2023-04-01T22:31:58;9.60;99.90
24162;DHT22;12318;51.262;7.066;2023-04-01T22:34:42;9.50;99.90
24162;DHT22;12318;51.262;7.066;2023-04-01T22:43:12;9.50;99.90
24162;DHT22;12318;51.262;7.066;2023-04-01T22:48:33;9.40;99.90
24162;DHT22;12318;51.262;7.066;2023-04-01T22:57:04;9.10;99.90
24162;DHT22;12318;51.262;7.066;2023-04-01T23:05:39;9.00;99.90
24162;DHT22;12318;51.262;7.066;2023-04-01T23:11:31;8.90;99.90
24162;DHT22;12318;51.262;7.066;2023-04-01T23:25:04;8.70;99.90
24162;DHT22;12318;51.262;7.066;2023-04-01T23:27:41;8.70;99.90
24162;DHT22;12318;51.262;7.066;2023-04-01T23:38:31;8.50;99.90
24162;DHT22;12318;51.262;7.066;2023-04-01T23:40:57;8.30;99.90
24162;DHT22;12318;51.262;7.066;2023-04-01T23:43:32;8.30;99.90
24162;DHT22;12318;51.262;7.066;2023-04-01T23:46:02;8.30;99.90
24162;DHT22;12318;51.262;7.066;2023-04-01T23:48:36;8.20;99.90
24162;DHT22;12318;51.262;7.066;2023-04-01T23:51:03;8.20;99.90
24162;DHT22;12318;51.262;7.066;2023-04-01T23:53:43;8.20;99.90
24162;DHT22;12318;51.262;7.066;2023-04-01T23:56:10;8.30;99.90
24162;DHT22;12318;51.262;7.066;2023-04-01T23:58:48;8.30;99.90
